sensor_id;sensor_type;location;lat;lon;timestamp;P1;durP1;ratioP1;P2;durP2;ratioP2
32639;SDS011;19049;52.524;11.468;2023-07-13T00:00:10;1.00;;;0.90;;
32639;SDS011;19049;52.524;11.468;2023-07-13T00:02:37;1.23;;;1.17;;
32639;SDS011;19049;52.524;11.468;2023-07-13T00:05:03;1.13;;;1.03;;
32639;SDS011;19049;52.524;11.468;2023-07-13T00:07:28;2.30;;;1.40;;
32639;SDS011;19049;52.524;11.468;2023-07-13T00:09:56;2.30;;;1.30;;
32639;SDS011;19049;52.524;11.468;2023-07-13T00:12:25;2.07;;;1.17;;
32639;SDS011;19049;52.524;11.468;2023-07-13T00:14:57;0.93;;;0.93;;
32639;SDS011;19049;52.524;11.468;2023-07-13T00:17:24;2.87;;;1.23;;
32639;SDS011;19049;52.524;11.468;2023-07-13T00:19:50;1.50;;;1.27;;
32639;SDS011;19049;52.524;11.468;2023-07-13T00:22:17;1.43;;;1.30;;
32639;SDS011;19049;52.524;11.468;2023-07-13T00:24:44;1.73;;;1.30;;
32639;SDS011;19049;52.524;11.468;2023-07-13T00:27:10;1.57;;;1.10;;
32639;SDS011;19049;52.524;11.468;2023-07-13T00:29:36;1.07;;;1.00;;
32639;SDS011;19049;52.524;11.468;2023-07-13T00:32:05;1.30;;;1.20;;
32639;SDS011;19049;52.524;11.468;2023-07-13T00:34:32;1.13;;;0.93;;
32639;SDS011;19049;52.524;11.468;2023-07-13T00:36:58;1.63;;;1.17;;
32639;SDS011;19049;52.524;11.468;2023-07-13T00:39:24;2.00;;;1.20;;
32639;SDS011;19049;52.524;11.468;2023-07-13T00:41:50;1.23;;;1.10;;
32639;SDS011;19049;52.524;11.468;2023-07-13T00:44:17;1.40;;;1.13;;
32639;SDS011;19049;52.524;11.468;2023-07-13T00:46:43;1.30;;;1.20;;
32639;SDS011;19049;52.524;11.468;2023-07-13T00:49:10;1.40;;;1.23;;
32639;SDS011;19049;52.524;11.468;2023-07-13T00:51:40;1.40;;;1.30;;
32639;SDS011;19049;52.524;11.468;2023-07-13T00:54:15;1.37;;;1.10;;
32639;SDS011;19049;52.524;11.468;2023-07-13T00:56:44;2.10;;;1.30;;
32639;SDS011;19049;52.524;11.468;2023-07-13T00:59:11;1.20;;;1.10;;
32639;SDS011;19049;52.524;11.468;2023-07-13T01:01:40;1.60;;;1.50;;
32639;SDS011;19049;52.524;11.468;2023-07-13T01:04:06;1.30;;;1.20;;
32639;SDS011;19049;52.524;11.468;2023-07-13T01:06:33;2.23;;;1.40;;
32639;SDS011;19049;52.524;11.468;2023-07-13T01:09:00;1.60;;;1.47;;
32639;SDS011;19049;52.524;11.468;2023-07-13T01:11:27;1.57;;;1.47;;
32639;SDS011;19049;52.524;11.468;2023-07-13T01:13:53;2.57;;;1.77;;
32639;SDS011;19049;52.524;11.468;2023-07-13T01:16:24;2.03;;;1.60;;
32639;SDS011;19049;52.524;11.468;2023-07-13T01:18:52;2.27;;;1.60;;
32639;SDS011;19049;52.524;11.468;2023-07-13T01:21:17;2.03;;;1.40;;
32639;SDS011;19049;52.524;11.468;2023-07-13T01:23:44;2.70;;;1.70;;
32639;SDS011;19049;52.524;11.468;2023-07-13T01:26:10;1.73;;;1.63;;
32639;SDS011;19049;52.524;11.468;2023-07-13T01:28:36;1.50;;;1.40;;
32639;SDS011;19049;52.524;11.468;2023-07-13T01:31:02;3.40;;;1.67;;
32639;SDS011;19049;52.524;11.468;2023-07-13T01:33:29;3.60;;;1.47;;
32639;SDS011;19049;52.524;11.468;2023-07-13T01:35:54;1.87;;;1.70;;
32639;SDS011;19049;52.524;11.468;2023-07-13T01:38:22;2.10;;;1.73;;
32639;SDS011;19049;52.524;11.468;2023-07-13T01:40:49;1.73;;;1.43;;
32639;SDS011;19049;52.524;11.468;2023-07-13T01:43:17;1.77;;;1.47;;
32639;SDS011;19049;52.524;11.468;2023-07-13T01:45:43;1.73;;;1.63;;
32639;SDS011;19049;52.524;11.468;2023-07-13T01:48:09;2.63;;;1.80;;
32639;SDS011;19049;52.524;11.468;2023-07-13T01:50:35;1.90;;;1.60;;
32639;SDS011;19049;52.524;11.468;2023-07-13T01:53:01;1.57;;;1.47;;
32639;SDS011;19049;52.524;11.468;2023-07-13T01:55:27;1.63;;;1.53;;
32639;SDS011;19049;52.524;11.468;2023-07-13T01:57:53;1.53;;;1.43;;
32639;SDS011;19049;52.524;11.468;2023-07-13T02:00:19;1.83;;;1.73;;
32639;SDS011;19049;52.524;11.468;2023-07-13T02:02:45;1.90;;;1.60;;
32639;SDS011;19049;52.524;11.468;2023-07-13T02:05:11;1.50;;;1.40;;
32639;SDS011;19049;52.524;11.468;2023-07-13T02:07:37;1.53;;;1.43;;
32639;SDS011;19049;52.524;11.468;2023-07-13T02:10:04;2.13;;;1.70;;
32639;SDS011;19049;52.524;11.468;2023-07-13T02:12:31;2.80;;;1.67;;
32639;SDS011;19049;52.524;11.468;2023-07-13T02:14:56;1.80;;;1.63;;
32639;SDS011;19049;52.524;11.468;2023-07-13T02:17:22;2.40;;;1.90;;
32639;SDS011;19049;52.524;11.468;2023-07-13T02:19:47;2.53;;;2.00;;
32639;SDS011;19049;52.524;11.468;2023-07-13T02:22:13;3.80;;;1.87;;
32639;SDS011;19049;52.524;11.468;2023-07-13T02:24:39;1.97;;;1.80;;
32639;SDS011;19049;52.524;11.468;2023-07-13T02:27:05;2.17;;;1.87;;
32639;SDS011;19049;52.524;11.468;2023-07-13T02:29:31;2.77;;;2.10;;
32639;SDS011;19049;52.524;11.468;2023-07-13T02:31:56;1.67;;;1.53;;
32639;SDS011;19049;52.524;11.468;2023-07-13T02:34:22;2.37;;;1.80;;
32639;SDS011;19049;52.524;11.468;2023-07-13T02:36:47;1.60;;;1.50;;
32639;SDS011;19049;52.524;11.468;2023-07-13T02:39:13;2.17;;;1.90;;
32639;SDS011;19049;52.524;11.468;2023-07-13T02:41:39;1.83;;;1.70;;
32639;SDS011;19049;52.524;11.468;2023-07-13T02:44:05;3.40;;;2.03;;
32639;SDS011;19049;52.524;11.468;2023-07-13T02:46:31;2.33;;;1.97;;
32639;SDS011;19049;52.524;11.468;2023-07-13T02:48:57;2.60;;;2.20;;
32639;SDS011;19049;52.524;11.468;2023-07-13T02:51:23;2.23;;;1.90;;
32639;SDS011;19049;52.524;11.468;2023-07-13T02:53:49;2.17;;;1.63;;
32639;SDS011;19049;52.524;11.468;2023-07-13T02:56:15;2.20;;;2.00;;
32639;SDS011;19049;52.524;11.468;2023-07-13T02:58:40;2.17;;;1.93;;
32639;SDS011;19049;52.524;11.468;2023-07-13T03:01:11;2.53;;;2.10;;
32639;SDS011;19049;52.524;11.468;2023-07-13T03:03:37;1.87;;;1.77;;
32639;SDS011;19049;52.524;11.468;2023-07-13T03:06:03;2.23;;;1.90;;
32639;SDS011;19049;52.524;11.468;2023-07-13T03:08:30;3.60;;;2.27;;
32639;SDS011;19049;52.524;11.468;2023-07-13T03:11:17;3.47;;;2.10;;
32639;SDS011;19049;52.524;11.468;2023-07-13T03:13:44;2.00;;;1.80;;
32639;SDS011;19049;52.524;11.468;2023-07-13T03:16:10;3.03;;;2.03;;
32639;SDS011;19049;52.524;11.468;2023-07-13T03:18:37;3.83;;;1.90;;
32639;SDS011;19049;52.524;11.468;2023-07-13T03:21:03;2.13;;;1.80;;
32639;SDS011;19049;52.524;11.468;2023-07-13T03:23:29;2.30;;;2.00;;
32639;SDS011;19049;52.524;11.468;2023-07-13T03:26:06;2.40;;;1.90;;
32639;SDS011;19049;52.524;11.468;2023-07-13T03:28:33;1.93;;;1.73;;
32639;SDS011;19049;52.524;11.468;2023-07-13T03:31:00;2.47;;;2.10;;
32639;SDS011;19049;52.524;11.468;2023-07-13T03:33:31;2.30;;;1.80;;
32639;SDS011;19049;52.524;11.468;2023-07-13T03:35:57;2.03;;;1.80;;
32639;SDS011;19049;52.524;11.468;2023-07-13T03:38:23;2.60;;;1.87;;
32639;SDS011;19049;52.524;11.468;2023-07-13T03:40:49;1.97;;;1.77;;
32639;SDS011;19049;52.524;11.468;2023-07-13T03:43:14;2.83;;;2.23;;
32639;SDS011;19049;52.524;11.468;2023-07-13T03:45:40;2.47;;;2.07;;
32639;SDS011;19049;52.524;11.468;2023-07-13T03:48:06;2.63;;;2.20;;
32639;SDS011;19049;52.524;11.468;2023-07-13T03:50:32;2.17;;;1.97;;
32639;SDS011;19049;52.524;11.468;2023-07-13T03:52:58;3.20;;;2.53;;
32639;SDS011;19049;52.524;11.468;2023-07-13T03:55:24;2.50;;;1.80;;
32639;SDS011;19049;52.524;11.468;2023-07-13T03:57:59;2.87;;;1.83;;
32639;SDS011;19049;52.524;11.468;2023-07-13T04:00:45;2.63;;;1.67;;
32639;SDS011;19049;52.524;11.468;2023-07-13T04:03:11;3.90;;;2.10;;
32639;SDS011;19049;52.524;11.468;2023-07-13T04:05:36;3.03;;;1.83;;
32639;SDS011;19049;52.524;11.468;2023-07-13T04:08:05;3.47;;;1.80;;
32639;SDS011;19049;52.524;11.468;2023-07-13T04:10:31;2.17;;;1.97;;
32639;SDS011;19049;52.524;11.468;2023-07-13T04:12:56;2.37;;;2.07;;
32639;SDS011;19049;52.524;11.468;2023-07-13T04:15:22;1.77;;;1.67;;
32639;SDS011;19049;52.524;11.468;2023-07-13T04:17:47;2.20;;;2.00;;
32639;SDS011;19049;52.524;11.468;2023-07-13T04:20:13;2.70;;;2.00;;
32639;SDS011;19049;52.524;11.468;2023-07-13T04:22:39;2.40;;;2.20;;
32639;SDS011;19049;52.524;11.468;2023-07-13T04:25:05;2.90;;;2.10;;
32639;SDS011;19049;52.524;11.468;2023-07-13T04:27:31;2.37;;;2.17;;
32639;SDS011;19049;52.524;11.468;2023-07-13T04:29:57;2.17;;;1.97;;
32639;SDS011;19049;52.524;11.468;2023-07-13T04:32:23;2.23;;;2.03;;
32639;SDS011;19049;52.524;11.468;2023-07-13T04:34:48;2.20;;;2.00;;
32639;SDS011;19049;52.524;11.468;2023-07-13T04:37:18;2.20;;;2.00;;
32639;SDS011;19049;52.524;11.468;2023-07-13T04:39:43;3.57;;;1.97;;
32639;SDS011;19049;52.524;11.468;2023-07-13T04:42:09;3.23;;;2.13;;
32639;SDS011;19049;52.524;11.468;2023-07-13T04:44:35;2.33;;;2.03;;
32639;SDS011;19049;52.524;11.468;2023-07-13T04:47:00;2.13;;;1.93;;
32639;SDS011;19049;52.524;11.468;2023-07-13T04:49:26;3.00;;;2.33;;
32639;SDS011;19049;52.524;11.468;2023-07-13T04:51:51;3.50;;;2.30;;
32639;SDS011;19049;52.524;11.468;2023-07-13T04:54:17;2.50;;;1.77;;
32639;SDS011;19049;52.524;11.468;2023-07-13T04:56:43;2.70;;;1.60;;
32639;SDS011;19049;52.524;11.468;2023-07-13T04:59:08;3.10;;;2.10;;
32639;SDS011;19049;52.524;11.468;2023-07-13T05:01:34;2.30;;;2.10;;
32639;SDS011;19049;52.524;11.468;2023-07-13T05:03:59;3.13;;;2.00;;
32639;SDS011;19049;52.524;11.468;2023-07-13T05:06:25;3.10;;;1.70;;
32639;SDS011;19049;52.524;11.468;2023-07-13T05:08:51;3.33;;;1.83;;
32639;SDS011;19049;52.524;11.468;2023-07-13T05:11:17;1.70;;;1.60;;
32639;SDS011;19049;52.524;11.468;2023-07-13T05:13:43;3.47;;;2.00;;
32639;SDS011;19049;52.524;11.468;2023-07-13T05:16:09;1.87;;;1.70;;
32639;SDS011;19049;52.524;11.468;2023-07-13T05:18:34;1.63;;;1.50;;
32639;SDS011;19049;52.524;11.468;2023-07-13T05:21:04;2.60;;;1.67;;
32639;SDS011;19049;52.524;11.468;2023-07-13T05:23:33;2.43;;;1.90;;
32639;SDS011;19049;52.524;11.468;2023-07-13T05:26:00;2.60;;;1.80;;
32639;SDS011;19049;52.524;11.468;2023-07-13T05:28:26;2.40;;;1.60;;
32639;SDS011;19049;52.524;11.468;2023-07-13T05:30:52;3.77;;;2.17;;
32639;SDS011;19049;52.524;11.468;2023-07-13T05:33:19;2.83;;;1.97;;
32639;SDS011;19049;52.524;11.468;2023-07-13T05:35:45;3.33;;;1.90;;
32639;SDS011;19049;52.524;11.468;2023-07-13T05:38:10;2.43;;;1.70;;
32639;SDS011;19049;52.524;11.468;2023-07-13T05:40:36;2.43;;;1.80;;
32639;SDS011;19049;52.524;11.468;2023-07-13T05:43:02;2.73;;;2.00;;
32639;SDS011;19049;52.524;11.468;2023-07-13T05:45:28;2.00;;;1.77;;
32639;SDS011;19049;52.524;11.468;2023-07-13T05:47:54;2.83;;;1.90;;
32639;SDS011;19049;52.524;11.468;2023-07-13T05:50:19;2.17;;;1.70;;
32639;SDS011;19049;52.524;11.468;2023-07-13T05:52:46;3.93;;;1.73;;
32639;SDS011;19049;52.524;11.468;2023-07-13T05:55:12;1.90;;;1.60;;
32639;SDS011;19049;52.524;11.468;2023-07-13T05:57:38;2.90;;;1.90;;
32639;SDS011;19049;52.524;11.468;2023-07-13T06:00:04;2.40;;;1.70;;
32639;SDS011;19049;52.524;11.468;2023-07-13T06:02:30;3.93;;;2.13;;
32639;SDS011;19049;52.524;11.468;2023-07-13T06:04:55;4.07;;;1.97;;
32639;SDS011;19049;52.524;11.468;2023-07-13T06:07:21;3.73;;;1.60;;
32639;SDS011;19049;52.524;11.468;2023-07-13T06:09:47;4.33;;;1.80;;
32639;SDS011;19049;52.524;11.468;2023-07-13T06:12:13;5.97;;;2.20;;
32639;SDS011;19049;52.524;11.468;2023-07-13T06:14:39;2.50;;;1.67;;
32639;SDS011;19049;52.524;11.468;2023-07-13T06:17:05;2.77;;;1.80;;
32639;SDS011;19049;52.524;11.468;2023-07-13T06:19:32;2.23;;;1.57;;
32639;SDS011;19049;52.524;11.468;2023-07-13T06:21:58;3.90;;;1.73;;
32639;SDS011;19049;52.524;11.468;2023-07-13T06:24:24;3.40;;;1.63;;
32639;SDS011;19049;52.524;11.468;2023-07-13T06:26:50;3.67;;;1.60;;
32639;SDS011;19049;52.524;11.468;2023-07-13T06:29:16;2.73;;;1.50;;
32639;SDS011;19049;52.524;11.468;2023-07-13T06:31:42;2.87;;;1.20;;
32639;SDS011;19049;52.524;11.468;2023-07-13T06:34:08;1.13;;;1.00;;
32639;SDS011;19049;52.524;11.468;2023-07-13T06:36:33;3.27;;;1.30;;
32639;SDS011;19049;52.524;11.468;2023-07-13T06:39:01;2.20;;;1.30;;
32639;SDS011;19049;52.524;11.468;2023-07-13T06:41:27;2.63;;;1.20;;
32639;SDS011;19049;52.524;11.468;2023-07-13T06:43:53;4.47;;;1.47;;
32639;SDS011;19049;52.524;11.468;2023-07-13T06:46:20;2.60;;;1.20;;
32639;SDS011;19049;52.524;11.468;2023-07-13T06:48:47;3.33;;;1.17;;
32639;SDS011;19049;52.524;11.468;2023-07-13T06:51:12;1.87;;;1.20;;
32639;SDS011;19049;52.524;11.468;2023-07-13T06:53:38;2.33;;;1.33;;
32639;SDS011;19049;52.524;11.468;2023-07-13T06:56:03;3.37;;;1.30;;
32639;SDS011;19049;52.524;11.468;2023-07-13T06:58:30;3.33;;;1.37;;
32639;SDS011;19049;52.524;11.468;2023-07-13T07:00:56;2.90;;;1.10;;
32639;SDS011;19049;52.524;11.468;2023-07-13T07:03:22;4.20;;;1.47;;
32639;SDS011;19049;52.524;11.468;2023-07-13T07:05:48;4.90;;;1.57;;
32639;SDS011;19049;52.524;11.468;2023-07-13T07:08:14;2.53;;;1.10;;
32639;SDS011;19049;52.524;11.468;2023-07-13T07:10:40;2.93;;;1.33;;
32639;SDS011;19049;52.524;11.468;2023-07-13T07:13:05;6.27;;;1.33;;
32639;SDS011;19049;52.524;11.468;2023-07-13T07:15:31;3.23;;;1.30;;
32639;SDS011;19049;52.524;11.468;2023-07-13T07:17:57;3.37;;;1.40;;
32639;SDS011;19049;52.524;11.468;2023-07-13T07:20:23;1.60;;;0.93;;
32639;SDS011;19049;52.524;11.468;2023-07-13T07:22:49;2.80;;;1.00;;
32639;SDS011;19049;52.524;11.468;2023-07-13T07:25:15;4.30;;;1.37;;
32639;SDS011;19049;52.524;11.468;2023-07-13T07:27:40;2.90;;;1.20;;
32639;SDS011;19049;52.524;11.468;2023-07-13T07:30:06;2.73;;;1.30;;
32639;SDS011;19049;52.524;11.468;2023-07-13T07:32:32;2.37;;;1.27;;
32639;SDS011;19049;52.524;11.468;2023-07-13T07:34:58;5.47;;;1.30;;
32639;SDS011;19049;52.524;11.468;2023-07-13T07:37:24;6.03;;;1.30;;
32639;SDS011;19049;52.524;11.468;2023-07-13T07:39:50;5.00;;;1.57;;
32639;SDS011;19049;52.524;11.468;2023-07-13T07:42:15;3.40;;;1.03;;
32639;SDS011;19049;52.524;11.468;2023-07-13T07:44:41;4.30;;;1.10;;
32639;SDS011;19049;52.524;11.468;2023-07-13T07:47:07;2.43;;;1.20;;
32639;SDS011;19049;52.524;11.468;2023-07-13T07:49:34;2.93;;;1.23;;
32639;SDS011;19049;52.524;11.468;2023-07-13T07:52:00;4.23;;;1.37;;
32639;SDS011;19049;52.524;11.468;2023-07-13T07:54:25;2.60;;;1.33;;
32639;SDS011;19049;52.524;11.468;2023-07-13T07:56:51;2.03;;;1.07;;
32639;SDS011;19049;52.524;11.468;2023-07-13T07:59:18;2.40;;;1.07;;
32639;SDS011;19049;52.524;11.468;2023-07-13T08:01:44;4.50;;;1.33;;
32639;SDS011;19049;52.524;11.468;2023-07-13T08:04:11;3.33;;;1.30;;
32639;SDS011;19049;52.524;11.468;2023-07-13T08:06:37;2.53;;;1.20;;
32639;SDS011;19049;52.524;11.468;2023-07-13T08:09:02;4.27;;;1.30;;
32639;SDS011;19049;52.524;11.468;2023-07-13T08:11:29;4.57;;;1.43;;
32639;SDS011;19049;52.524;11.468;2023-07-13T08:13:55;3.10;;;1.13;;
32639;SDS011;19049;52.524;11.468;2023-07-13T08:16:20;4.30;;;1.10;;
32639;SDS011;19049;52.524;11.468;2023-07-13T08:18:47;4.70;;;1.73;;
32639;SDS011;19049;52.524;11.468;2023-07-13T08:21:12;6.80;;;1.60;;
32639;SDS011;19049;52.524;11.468;2023-07-13T08:23:38;5.00;;;1.50;;
32639;SDS011;19049;52.524;11.468;2023-07-13T08:26:03;3.43;;;1.50;;
32639;SDS011;19049;52.524;11.468;2023-07-13T08:28:29;3.93;;;1.40;;
32639;SDS011;19049;52.524;11.468;2023-07-13T08:30:59;2.00;;;1.10;;
32639;SDS011;19049;52.524;11.468;2023-07-13T08:33:29;1.80;;;0.90;;
32639;SDS011;19049;52.524;11.468;2023-07-13T08:35:55;3.17;;;1.30;;
32639;SDS011;19049;52.524;11.468;2023-07-13T08:38:21;3.87;;;1.70;;
32639;SDS011;19049;52.524;11.468;2023-07-13T08:40:54;3.07;;;1.10;;
32639;SDS011;19049;52.524;11.468;2023-07-13T08:43:39;8.77;;;2.13;;
32639;SDS011;19049;52.524;11.468;2023-07-13T08:46:12;3.00;;;1.53;;
32639;SDS011;19049;52.524;11.468;2023-07-13T08:49:06;3.37;;;1.80;;
32639;SDS011;19049;52.524;11.468;2023-07-13T08:51:49;3.70;;;1.90;;
32639;SDS011;19049;52.524;11.468;2023-07-13T08:56:56;2.50;;;1.47;;
32639;SDS011;19049;52.524;11.468;2023-07-13T08:59:24;4.77;;;2.00;;
32639;SDS011;19049;52.524;11.468;2023-07-13T09:04:21;3.63;;;1.90;;
32639;SDS011;19049;52.524;11.468;2023-07-13T09:12:01;2.97;;;1.87;;
32639;SDS011;19049;52.524;11.468;2023-07-13T09:17:15;6.67;;;2.90;;
32639;SDS011;19049;52.524;11.468;2023-07-13T09:19:45;4.57;;;2.63;;
32639;SDS011;19049;52.524;11.468;2023-07-13T09:22:15;4.07;;;2.00;;
32639;SDS011;19049;52.524;11.468;2023-07-13T09:27:14;6.03;;;2.13;;
32639;SDS011;19049;52.524;11.468;2023-07-13T09:29:46;3.33;;;2.10;;
32639;SDS011;19049;52.524;11.468;2023-07-13T09:32:16;5.17;;;2.23;;
32639;SDS011;19049;52.524;11.468;2023-07-13T09:34:50;3.03;;;1.93;;
32639;SDS011;19049;52.524;11.468;2023-07-13T09:37:20;3.40;;;1.73;;
32639;SDS011;19049;52.524;11.468;2023-07-13T09:39:58;3.07;;;2.03;;
32639;SDS011;19049;52.524;11.468;2023-07-13T09:42:27;2.67;;;1.80;;
32639;SDS011;19049;52.524;11.468;2023-07-13T09:44:54;7.00;;;2.00;;
32639;SDS011;19049;52.524;11.468;2023-07-13T09:47:25;3.90;;;1.83;;
32639;SDS011;19049;52.524;11.468;2023-07-13T09:49:53;4.60;;;2.37;;
32639;SDS011;19049;52.524;11.468;2023-07-13T09:52:24;3.50;;;1.70;;
32639;SDS011;19049;52.524;11.468;2023-07-13T09:54:52;3.23;;;1.73;;
32639;SDS011;19049;52.524;11.468;2023-07-13T09:57:24;4.90;;;1.80;;
32639;SDS011;19049;52.524;11.468;2023-07-13T09:59:51;2.90;;;1.70;;
32639;SDS011;19049;52.524;11.468;2023-07-13T10:05:01;3.90;;;1.67;;
32639;SDS011;19049;52.524;11.468;2023-07-13T10:07:28;3.17;;;1.50;;
32639;SDS011;19049;52.524;11.468;2023-07-13T10:09:55;4.10;;;1.30;;
32639;SDS011;19049;52.524;11.468;2023-07-13T10:12:22;2.77;;;1.30;;
32639;SDS011;19049;52.524;11.468;2023-07-13T10:14:50;1.40;;;0.90;;
32639;SDS011;19049;52.524;11.468;2023-07-13T10:17:20;2.23;;;1.00;;
32639;SDS011;19049;52.524;11.468;2023-07-13T10:19:55;1.83;;;0.87;;
32639;SDS011;19049;52.524;11.468;2023-07-13T10:22:45;2.40;;;0.90;;
32639;SDS011;19049;52.524;11.468;2023-07-13T10:25:20;1.80;;;1.23;;
32639;SDS011;19049;52.524;11.468;2023-07-13T10:27:52;1.20;;;0.90;;
32639;SDS011;19049;52.524;11.468;2023-07-13T10:30:23;2.20;;;1.40;;
32639;SDS011;19049;52.524;11.468;2023-07-13T10:32:53;1.87;;;0.90;;
32639;SDS011;19049;52.524;11.468;2023-07-13T10:35:20;3.40;;;1.13;;
32639;SDS011;19049;52.524;11.468;2023-07-13T10:37:52;2.30;;;1.00;;
32639;SDS011;19049;52.524;11.468;2023-07-13T10:40:54;1.70;;;1.20;;
32639;SDS011;19049;52.524;11.468;2023-07-13T10:43:25;1.50;;;1.00;;
32639;SDS011;19049;52.524;11.468;2023-07-13T10:46:03;2.70;;;1.20;;
32639;SDS011;19049;52.524;11.468;2023-07-13T10:48:31;1.50;;;0.93;;
32639;SDS011;19049;52.524;11.468;2023-07-13T10:50:59;4.27;;;1.50;;
32639;SDS011;19049;52.524;11.468;2023-07-13T10:53:30;2.20;;;1.20;;
32639;SDS011;19049;52.524;11.468;2023-07-13T10:56:01;2.43;;;1.40;;
32639;SDS011;19049;52.524;11.468;2023-07-13T10:58:50;1.07;;;0.87;;
32639;SDS011;19049;52.524;11.468;2023-07-13T11:04:25;2.93;;;1.23;;
32639;SDS011;19049;52.524;11.468;2023-07-13T11:06:58;1.80;;;1.30;;
32639;SDS011;19049;52.524;11.468;2023-07-13T11:12:49;2.13;;;1.37;;
32639;SDS011;19049;52.524;11.468;2023-07-13T11:15:13;2.33;;;1.07;;
32639;SDS011;19049;52.524;11.468;2023-07-13T11:17:49;1.53;;;0.90;;
32639;SDS011;19049;52.524;11.468;2023-07-13T11:20:30;0.77;;;0.70;;
32639;SDS011;19049;52.524;11.468;2023-07-13T11:23:08;1.47;;;1.10;;
32639;SDS011;19049;52.524;11.468;2023-07-13T11:25:37;2.90;;;1.30;;
32639;SDS011;19049;52.524;11.468;2023-07-13T11:28:05;3.33;;;1.10;;
32639;SDS011;19049;52.524;11.468;2023-07-13T11:30:35;2.60;;;1.27;;
32639;SDS011;19049;52.524;11.468;2023-07-13T11:35:40;2.37;;;1.23;;
32639;SDS011;19049;52.524;11.468;2023-07-13T11:38:12;2.03;;;1.20;;
32639;SDS011;19049;52.524;11.468;2023-07-13T11:40:42;1.53;;;1.17;;
32639;SDS011;19049;52.524;11.468;2023-07-13T11:43:11;2.70;;;0.80;;
32639;SDS011;19049;52.524;11.468;2023-07-13T11:45:38;2.10;;;0.70;;
32639;SDS011;19049;52.524;11.468;2023-07-13T11:48:04;1.70;;;1.00;;
32639;SDS011;19049;52.524;11.468;2023-07-13T11:50:30;1.57;;;1.10;;
32639;SDS011;19049;52.524;11.468;2023-07-13T11:52:57;3.70;;;1.37;;
32639;SDS011;19049;52.524;11.468;2023-07-13T11:55:24;2.20;;;1.03;;
32639;SDS011;19049;52.524;11.468;2023-07-13T12:00:22;4.23;;;1.03;;
32639;SDS011;19049;52.524;11.468;2023-07-13T12:02:50;2.47;;;1.10;;
32639;SDS011;19049;52.524;11.468;2023-07-13T12:05:18;3.30;;;1.03;;
32639;SDS011;19049;52.524;11.468;2023-07-13T12:07:46;2.33;;;1.20;;
32639;SDS011;19049;52.524;11.468;2023-07-13T12:10:17;2.07;;;1.20;;
32639;SDS011;19049;52.524;11.468;2023-07-13T12:12:56;2.23;;;1.20;;
32639;SDS011;19049;52.524;11.468;2023-07-13T12:15:28;2.73;;;1.10;;
32639;SDS011;19049;52.524;11.468;2023-07-13T12:18:03;2.83;;;1.10;;
32639;SDS011;19049;52.524;11.468;2023-07-13T12:20:35;4.10;;;1.00;;
32639;SDS011;19049;52.524;11.468;2023-07-13T12:23:10;3.27;;;1.20;;
32639;SDS011;19049;52.524;11.468;2023-07-13T12:25:45;3.47;;;1.23;;
32639;SDS011;19049;52.524;11.468;2023-07-13T12:28:21;2.67;;;1.10;;
32639;SDS011;19049;52.524;11.468;2023-07-13T12:30:57;1.87;;;0.90;;
32639;SDS011;19049;52.524;11.468;2023-07-13T12:33:27;1.73;;;1.03;;
32639;SDS011;19049;52.524;11.468;2023-07-13T12:35:54;2.60;;;1.27;;
32639;SDS011;19049;52.524;11.468;2023-07-13T12:38:21;1.77;;;1.10;;
32639;SDS011;19049;52.524;11.468;2023-07-13T12:40:49;2.50;;;0.90;;
32639;SDS011;19049;52.524;11.468;2023-07-13T12:43:16;1.97;;;0.87;;
32639;SDS011;19049;52.524;11.468;2023-07-13T12:46:04;2.43;;;1.17;;
32639;SDS011;19049;52.524;11.468;2023-07-13T12:48:40;2.13;;;1.13;;
32639;SDS011;19049;52.524;11.468;2023-07-13T12:51:09;1.67;;;1.00;;
32639;SDS011;19049;52.524;11.468;2023-07-13T12:53:43;2.23;;;0.93;;
32639;SDS011;19049;52.524;11.468;2023-07-13T12:56:29;3.00;;;0.80;;
32639;SDS011;19049;52.524;11.468;2023-07-13T12:59:00;2.27;;;1.33;;
32639;SDS011;19049;52.524;11.468;2023-07-13T13:01:29;1.57;;;0.97;;
32639;SDS011;19049;52.524;11.468;2023-07-13T13:03:57;2.83;;;1.40;;
32639;SDS011;19049;52.524;11.468;2023-07-13T13:06:29;2.13;;;1.07;;
32639;SDS011;19049;52.524;11.468;2023-07-13T13:08:56;2.07;;;1.00;;
32639;SDS011;19049;52.524;11.468;2023-07-13T13:11:23;3.23;;;1.10;;
32639;SDS011;19049;52.524;11.468;2023-07-13T13:13:51;1.77;;;1.23;;
32639;SDS011;19049;52.524;11.468;2023-07-13T13:16:21;1.67;;;0.93;;
32639;SDS011;19049;52.524;11.468;2023-07-13T13:18:54;2.70;;;0.97;;
32639;SDS011;19049;52.524;11.468;2023-07-13T13:21:24;1.63;;;1.27;;
32639;SDS011;19049;52.524;11.468;2023-07-13T13:23:51;1.83;;;1.30;;
32639;SDS011;19049;52.524;11.468;2023-07-13T13:26:18;1.97;;;1.20;;
32639;SDS011;19049;52.524;11.468;2023-07-13T13:28:46;1.57;;;1.20;;
32639;SDS011;19049;52.524;11.468;2023-07-13T13:31:13;2.97;;;1.20;;
32639;SDS011;19049;52.524;11.468;2023-07-13T13:33:40;1.57;;;1.07;;
32639;SDS011;19049;52.524;11.468;2023-07-13T13:36:16;1.80;;;1.07;;
32639;SDS011;19049;52.524;11.468;2023-07-13T13:38:44;1.93;;;1.40;;
32639;SDS011;19049;52.524;11.468;2023-07-13T13:41:10;2.47;;;1.00;;
32639;SDS011;19049;52.524;11.468;2023-07-13T13:43:38;1.73;;;1.03;;
32639;SDS011;19049;52.524;11.468;2023-07-13T13:46:05;2.57;;;1.10;;
32639;SDS011;19049;52.524;11.468;2023-07-13T13:48:50;2.57;;;1.20;;
32639;SDS011;19049;52.524;11.468;2023-07-13T13:51:17;2.97;;;1.30;;
32639;SDS011;19049;52.524;11.468;2023-07-13T13:53:45;2.37;;;1.27;;
32639;SDS011;19049;52.524;11.468;2023-07-13T13:56:12;1.50;;;1.00;;
32639;SDS011;19049;52.524;11.468;2023-07-13T13:58:38;2.53;;;1.10;;
32639;SDS011;19049;52.524;11.468;2023-07-13T14:01:04;1.50;;;1.00;;
32639;SDS011;19049;52.524;11.468;2023-07-13T14:03:37;2.67;;;1.33;;
32639;SDS011;19049;52.524;11.468;2023-07-13T14:06:03;1.13;;;1.00;;
32639;SDS011;19049;52.524;11.468;2023-07-13T14:08:29;1.60;;;1.23;;
32639;SDS011;19049;52.524;11.468;2023-07-13T14:10:55;1.70;;;1.20;;
32639;SDS011;19049;52.524;11.468;2023-07-13T14:13:27;3.13;;;1.27;;
32639;SDS011;19049;52.524;11.468;2023-07-13T14:15:57;2.37;;;1.37;;
32639;SDS011;19049;52.524;11.468;2023-07-13T14:18:24;1.77;;;1.10;;
32639;SDS011;19049;52.524;11.468;2023-07-13T14:20:50;2.50;;;1.10;;
32639;SDS011;19049;52.524;11.468;2023-07-13T14:23:17;1.13;;;1.03;;
32639;SDS011;19049;52.524;11.468;2023-07-13T14:25:43;1.10;;;1.00;;
32639;SDS011;19049;52.524;11.468;2023-07-13T14:30:45;1.70;;;1.23;;
32639;SDS011;19049;52.524;11.468;2023-07-13T14:33:12;1.43;;;1.10;;
32639;SDS011;19049;52.524;11.468;2023-07-13T14:35:38;1.73;;;1.10;;
32639;SDS011;19049;52.524;11.468;2023-07-13T14:38:04;2.83;;;1.17;;
32639;SDS011;19049;52.524;11.468;2023-07-13T14:40:31;1.20;;;1.10;;
32639;SDS011;19049;52.524;11.468;2023-07-13T14:42:57;2.37;;;1.20;;
32639;SDS011;19049;52.524;11.468;2023-07-13T14:45:23;2.77;;;1.10;;
32639;SDS011;19049;52.524;11.468;2023-07-13T14:47:50;3.87;;;1.00;;
32639;SDS011;19049;52.524;11.468;2023-07-13T14:50:20;2.13;;;1.20;;
32639;SDS011;19049;52.524;11.468;2023-07-13T14:52:57;5.57;;;1.60;;
32639;SDS011;19049;52.524;11.468;2023-07-13T14:55:23;3.53;;;1.10;;
32639;SDS011;19049;52.524;11.468;2023-07-13T14:57:51;1.57;;;1.23;;
32639;SDS011;19049;52.524;11.468;2023-07-13T15:00:21;1.93;;;1.20;;
32639;SDS011;19049;52.524;11.468;2023-07-13T15:02:50;1.37;;;0.93;;
32639;SDS011;19049;52.524;11.468;2023-07-13T15:05:20;0.83;;;0.83;;
32639;SDS011;19049;52.524;11.468;2023-07-13T15:07:51;0.80;;;0.80;;
32639;SDS011;19049;52.524;11.468;2023-07-13T15:10:25;1.10;;;0.80;;